createdAt,value
2023-04-26T00:00:18.709Z,82.75
2023-04-26T00:00:50.130Z,83.14
2023-04-26T00:01:22.064Z,83.09
2023-04-26T00:01:54.009Z,82.99
2023-04-26T00:02:27.387Z,83.30
2023-04-26T00:03:00.065Z,83.11
2023-04-26T00:03:32.779Z,83.59
2023-04-26T00:04:05.057Z,83.45
2023-04-26T00:04:37.074Z,82.76
2023-04-26T00:05:09.233Z,83.29
2023-04-26T00:05:41.110Z,83.08
2023-04-26T00:06:14.608Z,83.16
2023-04-26T00:06:46.036Z,83.23
2023-04-26T00:07:17.642Z,83.40
2023-04-26T00:07:50.424Z,82.92
2023-04-26T00:08:21.840Z,82.99
2023-04-26T00:08:53.461Z,83.18
2023-04-26T00:09:25.858Z,83.56
2023-04-26T00:09:57.308Z,83.39
2023-04-26T00:10:28.690Z,83.43
2023-04-26T00:11:00.311Z,83.42
2023-04-26T00:11:31.862Z,83.50
2023-04-26T00:12:03.392Z,83.25
2023-04-26T00:12:36.256Z,83.21
2023-04-26T00:13:08.229Z,83.58
2023-04-26T00:13:39.997Z,83.01
2023-04-26T00:14:12.109Z,83.27
2023-04-26T00:14:43.547Z,83.08
2023-04-26T00:15:14.986Z,83.10
2023-04-26T00:15:46.459Z,83.23
2023-04-26T00:16:18.537Z,83.15
2023-04-26T00:16:50.190Z,83.14
2023-04-26T00:17:23.309Z,83.17
2023-04-26T00:17:55.035Z,82.78
2023-04-26T00:18:26.528Z,83.00
2023-04-26T00:18:58.007Z,82.66
2023-04-26T00:19:29.525Z,82.84
2023-04-26T00:20:01.473Z,82.99
2023-04-26T00:20:33.035Z,82.67
2023-04-26T00:21:05.224Z,83.24
2023-04-26T00:21:36.921Z,82.72
2023-04-26T00:22:08.810Z,82.90
2023-04-26T00:22:40.693Z,82.96
2023-04-26T00:23:12.695Z,83.03
2023-04-26T00:23:44.095Z,82.69
2023-04-26T00:24:16.138Z,82.97
2023-04-26T00:24:47.763Z,82.80
2023-04-26T00:25:19.604Z,82.81
2023-04-26T00:25:50.995Z,82.78
2023-04-26T00:26:22.609Z,82.98
2023-04-26T00:26:55.583Z,82.75
2023-04-26T00:27:26.977Z,83.17
2023-04-26T00:27:58.367Z,83.18
2023-04-26T00:28:31.280Z,82.94
2023-04-26T00:29:05.117Z,83.20
2023-04-26T00:29:37.557Z,83.25
2023-04-26T00:30:10.581Z,83.06
2023-04-26T00:30:47.590Z,83.20
2023-04-26T00:31:19.426Z,83.41
2023-04-26T00:31:51.002Z,83.58
2023-04-26T00:32:22.743Z,83.25
2023-04-26T00:32:54.225Z,82.90
2023-04-26T00:33:26.078Z,83.37
2023-04-26T00:33:57.582Z,83.06
2023-04-26T00:34:36.291Z,83.16
2023-04-26T00:35:08.261Z,83.01
2023-04-26T00:35:39.690Z,82.92
2023-04-26T00:36:11.275Z,83.27
2023-04-26T00:36:43.059Z,83.53
2023-04-26T00:37:14.723Z,83.12
2023-04-26T00:37:46.534Z,83.17
2023-04-26T00:38:18.117Z,83.15
2023-04-26T00:38:49.764Z,83.07
2023-04-26T00:39:22.340Z,83.05
2023-04-26T00:39:53.750Z,83.04
2023-04-26T00:40:25.258Z,82.86
2023-04-26T00:40:56.725Z,82.82
2023-04-26T00:41:28.342Z,82.97
2023-04-26T00:41:59.876Z,82.88
2023-04-26T00:42:31.735Z,83.14
2023-04-26T00:43:03.820Z,83.13
2023-04-26T00:43:35.801Z,83.29
2023-04-26T00:44:07.471Z,83.38
2023-04-26T00:44:40.307Z,83.65
2023-04-26T00:45:11.799Z,83.42
2023-04-26T00:45:43.308Z,83.27
2023-04-26T00:46:15.159Z,83.46
2023-04-26T00:46:46.622Z,83.48
2023-04-26T00:47:18.084Z,83.51
2023-04-26T00:47:50.358Z,83.30
2023-04-26T00:48:21.838Z,83.14
2023-04-26T00:48:53.491Z,83.16
2023-04-26T00:49:28.199Z,82.95
2023-04-26T00:50:01.894Z,83.03
2023-04-26T00:50:33.466Z,83.47
2023-04-26T00:51:06.510Z,83.35
2023-04-26T00:51:38.258Z,83.09
2023-04-26T00:52:09.828Z,83.42
2023-04-26T00:52:41.317Z,83.68
2023-04-26T00:53:14.514Z,83.18
2023-04-26T00:53:46.323Z,83.42
2023-04-26T00:54:20.310Z,83.33
2023-04-26T00:54:53.708Z,83.22
2023-04-26T00:55:27.077Z,83.45
2023-04-26T00:55:59.581Z,83.12
2023-04-26T00:56:32.009Z,83.03
2023-04-26T00:57:03.816Z,83.38
2023-04-26T00:57:35.511Z,83.66
2023-04-26T00:58:07.047Z,83.58
2023-04-26T00:58:38.942Z,83.64
2023-04-26T00:59:10.381Z,83.25
2023-04-26T00:59:42.061Z,83.28
2023-04-26T01:00:13.736Z,83.22
2023-04-26T01:00:45.855Z,83.37
2023-04-26T01:01:17.456Z,83.49
2023-04-26T01:01:49.437Z,83.41
2023-04-26T01:02:21.832Z,83.63
2023-04-26T01:02:53.569Z,83.50
2023-04-26T01:03:25.594Z,83.36
2023-04-26T01:03:57.270Z,83.71
2023-04-26T01:04:30.306Z,83.46
2023-04-26T01:05:01.808Z,83.34
2023-04-26T01:05:33.247Z,83.71
2023-04-26T01:06:04.935Z,83.65
2023-04-26T01:06:38.504Z,83.80
2023-04-26T01:07:10.351Z,83.63
2023-04-26T01:07:41.980Z,83.54
2023-04-26T01:08:17.329Z,83.64
2023-04-26T01:08:52.189Z,83.63
2023-04-26T01:09:23.784Z,83.67
2023-04-26T01:09:56.263Z,83.73
2023-04-26T01:10:28.526Z,83.81
2023-04-26T01:11:00.175Z,84.08
2023-04-26T01:11:33.065Z,83.55
2023-04-26T01:12:05.440Z,83.69
2023-04-26T01:12:38.254Z,83.72
2023-04-26T01:13:09.975Z,84.08
2023-04-26T01:13:42.652Z,83.92
2023-04-26T01:14:15.351Z,83.97
2023-04-26T01:14:47.717Z,83.78
2023-04-26T01:15:19.279Z,83.83
2023-04-26T01:15:51.108Z,83.71
2023-04-26T01:16:23.905Z,83.87
2023-04-26T01:16:57.413Z,83.97
2023-04-26T01:17:29.703Z,83.68
2023-04-26T01:18:01.862Z,83.72
2023-04-26T01:18:33.644Z,83.69
2023-04-26T01:19:12.849Z,83.85
2023-04-26T01:19:48.481Z,83.70
2023-04-26T01:20:20.860Z,83.88
2023-04-26T01:20:53.277Z,83.84
2023-04-26T01:21:25.204Z,83.78
2023-04-26T01:21:56.635Z,83.91
2023-04-26T01:22:28.590Z,83.82
2023-04-26T01:23:00.063Z,83.73
2023-04-26T01:23:32.075Z,83.82
2023-04-26T01:24:03.864Z,83.81
2023-04-26T01:24:36.247Z,83.52
2023-04-26T01:25:12.218Z,83.86
2023-04-26T01:25:43.676Z,83.77
2023-04-26T01:26:15.304Z,83.55
2023-04-26T01:26:47.494Z,83.79
2023-04-26T01:27:19.047Z,84.03
2023-04-26T01:27:50.599Z,83.78
2023-04-26T01:28:22.836Z,83.95
2023-04-26T01:28:54.426Z,83.98
2023-04-26T01:29:27.697Z,83.78
2023-04-26T01:29:59.089Z,83.79
2023-04-26T01:30:30.718Z,83.84
2023-04-26T01:31:02.248Z,83.97
2023-04-26T01:31:33.946Z,83.84
2023-04-26T01:32:05.627Z,83.61
2023-04-26T01:32:37.149Z,83.78
2023-04-26T01:33:08.538Z,83.92
2023-04-26T01:33:40.072Z,83.94
2023-04-26T01:34:11.847Z,84.08
2023-04-26T01:34:43.505Z,84.29
2023-04-26T01:35:14.935Z,83.99
2023-04-26T01:35:46.401Z,84.36
2023-04-26T01:36:17.949Z,84.16
2023-04-26T01:36:49.321Z,84.22
2023-04-26T01:37:20.937Z,83.98
2023-04-26T01:37:52.355Z,84.27
2023-04-26T01:38:23.704Z,84.05
2023-04-26T01:38:55.328Z,84.15
2023-04-26T01:39:27.804Z,83.94
2023-04-26T01:39:59.266Z,83.92
2023-04-26T01:40:30.640Z,84.05
2023-04-26T01:41:02.245Z,84.01
2023-04-26T01:41:33.741Z,84.19
2023-04-26T01:42:05.517Z,84.08
2023-04-26T01:42:36.957Z,84.02
2023-04-26T01:43:08.437Z,84.02
2023-04-26T01:43:39.831Z,84.07
2023-04-26T01:44:11.745Z,83.91
2023-04-26T01:44:43.298Z,83.70
2023-04-26T01:45:14.714Z,83.87
2023-04-26T01:45:49.036Z,83.90
2023-04-26T01:46:20.643Z,83.90
2023-04-26T01:46:52.291Z,83.90
2023-04-26T01:47:23.764Z,83.84
2023-04-26T01:47:55.171Z,84.04
2023-04-26T01:48:26.666Z,84.01
2023-04-26T01:48:58.385Z,84.15
2023-04-26T01:49:29.887Z,83.99
2023-04-26T01:50:01.463Z,84.09
2023-04-26T01:50:33.134Z,83.97
2023-04-26T01:51:04.759Z,84.22
2023-04-26T01:51:36.319Z,84.05
2023-04-26T01:52:07.875Z,84.09
2023-04-26T01:52:39.634Z,84.24
2023-04-26T01:53:11.156Z,84.08
2023-04-26T01:53:42.534Z,84.00
2023-04-26T01:54:13.946Z,83.95
2023-04-26T01:54:45.769Z,83.99
2023-04-26T01:55:17.336Z,83.99
2023-04-26T01:55:48.716Z,84.13
2023-04-26T01:56:20.924Z,84.03
2023-04-26T01:56:52.334Z,83.67
2023-04-26T01:57:24.105Z,84.00
2023-04-26T01:57:55.802Z,83.90
2023-04-26T01:58:27.524Z,84.12
2023-04-26T01:58:59.212Z,84.16
2023-04-26T01:59:30.870Z,83.86
2023-04-26T02:00:02.767Z,84.08
2023-04-26T02:00:34.187Z,84.25
2023-04-26T02:01:08.250Z,84.61
2023-04-26T02:01:42.041Z,84.29
2023-04-26T02:02:13.510Z,84.28
2023-04-26T02:02:45.111Z,84.45
2023-04-26T02:03:16.883Z,84.32
2023-04-26T02:03:49.392Z,84.32
2023-04-26T02:04:20.873Z,84.41
2023-04-26T02:04:52.309Z,84.33
2023-04-26T02:05:27.000Z,84.42
2023-04-26T02:05:58.525Z,84.29
2023-04-26T02:06:30.006Z,84.42
2023-04-26T02:07:01.402Z,84.60
2023-04-26T02:07:32.821Z,84.42
2023-04-26T02:08:04.479Z,84.45
2023-04-26T02:08:36.042Z,84.46
2023-04-26T02:09:09.478Z,84.55
2023-04-26T02:09:41.534Z,84.50
2023-04-26T02:10:13.153Z,84.59
2023-04-26T02:10:44.587Z,84.56
2023-04-26T02:11:16.001Z,84.81
2023-04-26T02:11:47.451Z,84.51
2023-04-26T02:12:18.811Z,85.00
2023-04-26T02:12:50.183Z,85.13
2023-04-26T02:13:21.904Z,85.10
2023-04-26T02:13:54.071Z,85.08
2023-04-26T02:14:25.594Z,85.09
2023-04-26T02:14:57.008Z,85.01
2023-04-26T02:15:28.408Z,85.11
2023-04-26T02:15:59.905Z,85.23
2023-04-26T02:16:32.590Z,84.87
2023-04-26T02:17:04.777Z,85.07
2023-04-26T02:17:37.995Z,85.22
2023-04-26T02:18:09.622Z,85.13
2023-04-26T02:18:41.654Z,85.01
2023-04-26T02:19:13.440Z,85.14
2023-04-26T02:19:44.890Z,85.05
2023-04-26T02:20:16.543Z,84.99
2023-04-26T02:20:48.152Z,84.89
2023-04-26T02:21:19.653Z,85.07
2023-04-26T02:21:52.726Z,85.03
2023-04-26T02:22:26.091Z,84.87
2023-04-26T02:22:57.485Z,84.98
2023-04-26T02:23:28.830Z,85.16
2023-04-26T02:24:00.312Z,84.99
2023-04-26T02:24:33.461Z,84.80
2023-04-26T02:25:05.551Z,84.97
2023-04-26T02:25:37.431Z,85.21
2023-04-26T02:26:08.837Z,85.25
2023-04-26T02:26:40.474Z,85.35
2023-04-26T02:27:11.918Z,85.43
2023-04-26T02:27:43.355Z,85.34
2023-04-26T02:28:16.162Z,85.29
2023-04-26T02:28:47.608Z,85.58
2023-04-26T02:29:21.239Z,85.33
2023-04-26T02:29:58.280Z,85.51
2023-04-26T02:30:30.433Z,85.44
2023-04-26T02:31:02.658Z,85.27
2023-04-26T02:31:34.113Z,85.40
2023-04-26T02:32:05.760Z,85.31
2023-04-26T02:32:37.285Z,85.26
2023-04-26T02:33:09.886Z,85.28
2023-04-26T02:33:41.338Z,85.24
2023-04-26T02:34:12.743Z,85.29
2023-04-26T02:34:44.821Z,85.06
2023-04-26T02:35:16.257Z,85.13
2023-04-26T02:35:47.696Z,85.26
2023-04-26T02:36:19.334Z,85.14
2023-04-26T02:36:50.766Z,85.27
2023-04-26T02:37:22.215Z,85.25
2023-04-26T02:37:53.582Z,85.22
2023-04-26T02:38:28.338Z,85.22
2023-04-26T02:39:00.497Z,85.21
2023-04-26T02:39:32.379Z,85.80
2023-04-26T02:40:05.635Z,85.71
2023-04-26T02:40:37.054Z,85.78
2023-04-26T02:41:08.475Z,85.75
2023-04-26T02:41:39.932Z,85.79
2023-04-26T02:42:11.369Z,85.80
2023-04-26T02:42:43.433Z,85.73
2023-04-26T02:43:14.882Z,85.71
2023-04-26T02:43:46.454Z,85.88
2023-04-26T02:44:17.858Z,85.56
2023-04-26T02:44:49.308Z,85.88
2023-04-26T02:45:20.780Z,85.90
2023-04-26T02:45:52.280Z,85.88
2023-04-26T02:46:23.712Z,85.60
2023-04-26T02:46:55.272Z,85.74
2023-04-26T02:47:26.773Z,85.81
2023-04-26T02:47:58.334Z,85.71
2023-04-26T02:48:29.828Z,85.81
2023-04-26T02:49:01.402Z,85.97
2023-04-26T02:49:32.851Z,85.84
2023-04-26T02:50:05.790Z,86.01
2023-04-26T02:50:37.175Z,85.87
2023-04-26T02:51:08.897Z,86.14
2023-04-26T02:51:40.356Z,85.88
2023-04-26T02:52:11.928Z,86.21
2023-04-26T02:52:43.554Z,86.04
2023-04-26T02:53:15.941Z,86.00
2023-04-26T02:53:47.449Z,85.82
2023-04-26T02:54:18.932Z,86.02
2023-04-26T02:54:50.927Z,85.77
2023-04-26T02:55:22.354Z,85.79
2023-04-26T02:55:53.810Z,85.62
2023-04-26T02:56:25.790Z,85.54
2023-04-26T02:56:58.640Z,85.95
2023-04-26T02:57:31.283Z,85.80
2023-04-26T02:58:02.704Z,85.85
2023-04-26T02:58:34.076Z,85.88
2023-04-26T02:59:05.503Z,86.00
2023-04-26T02:59:37.059Z,86.07
2023-04-26T03:00:09.239Z,86.25
2023-04-26T03:00:46.287Z,86.19
2023-04-26T03:01:18.760Z,86.04
2023-04-26T03:01:50.298Z,86.11
2023-04-26T03:02:22.225Z,86.19
2023-04-26T03:02:53.969Z,86.19
2023-04-26T03:03:25.684Z,85.94
2023-04-26T03:03:57.330Z,86.26
2023-04-26T03:04:30.212Z,85.97
2023-04-26T03:05:02.353Z,86.41
2023-04-26T03:05:33.757Z,86.21
2023-04-26T03:06:05.490Z,86.37
2023-04-26T03:06:36.900Z,86.48
2023-04-26T03:07:08.335Z,86.55
2023-04-26T03:07:39.810Z,86.54
2023-04-26T03:08:11.404Z,86.49
2023-04-26T03:08:42.875Z,86.53
2023-04-26T03:09:14.275Z,86.62
2023-04-26T03:09:45.786Z,86.39
2023-04-26T03:10:17.508Z,86.46
2023-04-26T03:10:48.888Z,86.43
2023-04-26T03:11:20.452Z,86.16
2023-04-26T03:11:52.038Z,86.49
2023-04-26T03:12:23.466Z,86.58
2023-04-26T03:12:55.120Z,86.60
2023-04-26T03:13:26.725Z,86.42
2023-04-26T03:13:58.115Z,86.16
2023-04-26T03:14:29.503Z,86.50
2023-04-26T03:15:03.121Z,86.25
2023-04-26T03:15:34.515Z,86.36
2023-04-26T03:16:06.277Z,86.30
2023-04-26T03:16:43.059Z,85.85
2023-04-26T03:17:14.619Z,86.18
2023-04-26T03:17:46.186Z,85.97
2023-04-26T03:18:17.877Z,86.22
2023-04-26T03:18:50.271Z,86.10
2023-04-26T03:19:21.895Z,85.98
2023-04-26T03:19:53.610Z,86.04
2023-04-26T03:20:25.689Z,86.15
2023-04-26T03:20:57.334Z,86.18
2023-04-26T03:21:28.721Z,86.14
2023-04-26T03:22:00.331Z,86.41
2023-04-26T03:22:31.726Z,86.38
2023-04-26T03:23:03.401Z,86.38
2023-04-26T03:23:34.828Z,86.49
2023-04-26T03:24:07.155Z,86.52
2023-04-26T03:24:38.629Z,86.59
2023-04-26T03:25:10.421Z,86.27
2023-04-26T03:25:41.898Z,86.60
2023-04-26T03:26:14.282Z,86.59
2023-04-26T03:26:45.916Z,86.73
2023-04-26T03:27:17.338Z,86.62
2023-04-26T03:27:48.820Z,86.54
2023-04-26T03:28:20.666Z,86.57
2023-04-26T03:28:52.392Z,86.66
2023-04-26T03:29:24.023Z,86.69
2023-04-26T03:29:56.180Z,86.78
2023-04-26T03:30:27.720Z,86.57
2023-04-26T03:30:59.154Z,86.60
2023-04-26T03:31:30.771Z,86.50
2023-04-26T03:32:02.559Z,86.71
2023-04-26T03:32:34.078Z,86.50
2023-04-26T03:33:05.692Z,86.22
2023-04-26T03:33:37.236Z,86.40
2023-04-26T03:34:09.083Z,86.54
2023-04-26T03:34:41.156Z,86.63
2023-04-26T03:35:12.655Z,86.71
2023-04-26T03:35:44.046Z,86.48
2023-04-26T03:36:15.555Z,86.46
2023-04-26T03:36:47.083Z,86.38
2023-04-26T03:37:18.703Z,86.68
2023-04-26T03:37:52.412Z,86.66
2023-04-26T03:38:25.053Z,86.75
2023-04-26T03:38:56.624Z,86.65
2023-04-26T03:39:28.030Z,86.72
2023-04-26T03:39:59.648Z,86.47
2023-04-26T03:40:31.165Z,86.35
2023-04-26T03:41:02.630Z,86.24
2023-04-26T03:41:36.738Z,86.45
2023-04-26T03:42:08.227Z,86.64
2023-04-26T03:42:39.654Z,86.79
2023-04-26T03:43:11.249Z,86.85
2023-04-26T03:43:42.708Z,86.53
2023-04-26T03:44:14.294Z,86.46
2023-04-26T03:44:45.793Z,86.55
2023-04-26T03:45:17.619Z,86.67
2023-04-26T03:45:50.923Z,86.77
2023-04-26T03:46:22.564Z,86.65
2023-04-26T03:46:54.373Z,86.85
2023-04-26T03:47:25.773Z,86.95
2023-04-26T03:47:57.260Z,86.74
2023-04-26T03:48:28.670Z,86.64
2023-04-26T03:49:00.231Z,86.32
2023-04-26T03:49:32.124Z,86.66
2023-04-26T03:50:03.834Z,86.61
2023-04-26T03:50:35.337Z,86.78
2023-04-26T03:51:07.351Z,86.46
2023-04-26T03:51:38.818Z,86.42
2023-04-26T03:52:10.364Z,86.27
2023-04-26T03:52:41.834Z,86.36
2023-04-26T03:53:13.401Z,86.51
2023-04-26T03:53:46.771Z,86.23
2023-04-26T03:54:18.132Z,86.21
2023-04-26T03:54:49.533Z,86.40
2023-04-26T03:55:21.210Z,86.23
2023-04-26T03:55:52.707Z,86.34
2023-04-26T03:56:24.269Z,86.43
2023-04-26T03:56:56.535Z,86.27
2023-04-26T03:57:28.055Z,86.56
2023-04-26T03:57:59.469Z,86.57
2023-04-26T03:58:31.194Z,86.72
2023-04-26T03:59:02.860Z,86.66
2023-04-26T03:59:34.474Z,86.79
2023-04-26T04:00:14.135Z,86.80
2023-04-26T04:00:46.093Z,86.93
2023-04-26T04:01:17.588Z,87.06
2023-04-26T04:01:49.235Z,87.11
2023-04-26T04:02:21.380Z,87.09
2023-04-26T04:02:53.114Z,87.24
2023-04-26T04:03:25.460Z,87.61
2023-04-26T04:03:57.514Z,87.38
2023-04-26T04:04:29.315Z,87.46
2023-04-26T04:05:01.179Z,87.42
2023-04-26T04:05:33.239Z,87.38
2023-04-26T04:06:05.048Z,87.17
2023-04-26T04:06:36.498Z,87.28
2023-04-26T04:07:07.876Z,87.36
2023-04-26T04:07:39.305Z,87.42
2023-04-26T04:08:11.000Z,87.09
2023-04-26T04:08:42.382Z,87.16
2023-04-26T04:09:14.195Z,87.25
2023-04-26T04:09:45.711Z,87.40
2023-04-26T04:10:17.255Z,87.47
2023-04-26T04:10:48.827Z,87.37
2023-04-26T04:11:20.652Z,87.50
2023-04-26T04:11:52.256Z,87.56
2023-04-26T04:12:23.735Z,87.44
2023-04-26T04:12:55.098Z,87.59
2023-04-26T04:13:26.534Z,87.28
2023-04-26T04:13:58.143Z,87.36
2023-04-26T04:14:29.656Z,87.50
2023-04-26T04:15:01.382Z,87.56
2023-04-26T04:15:32.871Z,87.60
2023-04-26T04:16:05.022Z,87.81
2023-04-26T04:16:36.952Z,87.75
2023-04-26T04:17:08.495Z,87.46
2023-04-26T04:17:40.099Z,87.69
2023-04-26T04:18:11.603Z,87.46
2023-04-26T04:18:43.500Z,87.43
2023-04-26T04:19:14.923Z,87.36
2023-04-26T04:19:46.381Z,87.23
2023-04-26T04:20:17.809Z,87.21
2023-04-26T04:20:49.324Z,87.25
2023-04-26T04:21:20.925Z,87.27
2023-04-26T04:21:52.291Z,87.63
2023-04-26T04:22:23.784Z,88.01
2023-04-26T04:22:56.191Z,87.80
2023-04-26T04:23:27.987Z,87.56
2023-04-26T04:23:59.446Z,87.86
2023-04-26T04:24:34.270Z,87.86
2023-04-26T04:25:09.099Z,87.84
2023-04-26T04:25:41.104Z,88.09
2023-04-26T04:26:12.703Z,88.13
2023-04-26T04:26:44.209Z,88.28
2023-04-26T04:27:16.286Z,88.11
2023-04-26T04:27:48.951Z,88.17
2023-04-26T04:28:20.398Z,88.43
2023-04-26T04:28:52.093Z,88.18
2023-04-26T04:29:24.003Z,88.25
2023-04-26T04:29:55.494Z,88.67
2023-04-26T04:30:26.994Z,88.36
2023-04-26T04:30:58.824Z,88.55
2023-04-26T04:31:30.422Z,88.26
2023-04-26T04:32:02.304Z,88.36
2023-04-26T04:32:34.071Z,88.41
2023-04-26T04:33:05.697Z,88.14
2023-04-26T04:33:37.624Z,88.51
2023-04-26T04:34:09.088Z,88.77
2023-04-26T04:34:41.613Z,88.60
2023-04-26T04:35:13.641Z,88.92
2023-04-26T04:35:45.358Z,89.03
2023-04-26T04:36:16.859Z,88.87
2023-04-26T04:36:48.339Z,89.02
2023-04-26T04:37:19.725Z,88.69
2023-04-26T04:37:51.548Z,88.80
2023-04-26T04:38:23.398Z,88.87
2023-04-26T04:38:55.170Z,88.85
2023-04-26T04:39:26.904Z,88.64
2023-04-26T04:39:58.524Z,88.74
2023-04-26T04:40:30.358Z,88.96
2023-04-26T04:41:01.985Z,89.18
2023-04-26T04:41:34.830Z,88.89
2023-04-26T04:42:06.496Z,88.84
2023-04-26T04:42:38.094Z,88.91
2023-04-26T04:43:10.452Z,89.00
2023-04-26T04:43:42.021Z,88.79
2023-04-26T04:44:15.685Z,89.14
2023-04-26T04:44:47.669Z,89.14
2023-04-26T04:45:20.478Z,89.25
2023-04-26T04:45:52.066Z,89.41
2023-04-26T04:46:25.331Z,89.18
2023-04-26T04:46:57.037Z,89.35
2023-04-26T04:47:28.627Z,89.10
2023-04-26T04:48:00.137Z,89.01
2023-04-26T04:48:31.574Z,89.01
2023-04-26T04:49:03.156Z,89.31
2023-04-26T04:49:34.624Z,89.04
2023-04-26T04:50:07.460Z,89.00
2023-04-26T04:50:39.548Z,89.06
2023-04-26T04:51:10.910Z,88.90
2023-04-26T04:51:42.672Z,89.31
2023-04-26T04:52:15.343Z,89.05
2023-04-26T04:52:47.632Z,89.27
2023-04-26T04:53:19.143Z,89.18
2023-04-26T04:53:51.196Z,89.45
2023-04-26T04:54:23.071Z,89.32
2023-04-26T04:54:54.541Z,89.46
2023-04-26T04:55:26.030Z,89.70
2023-04-26T04:55:57.465Z,89.58
2023-04-26T04:56:28.907Z,89.54
2023-04-26T04:57:01.499Z,89.65
2023-04-26T04:57:33.076Z,89.68
2023-04-26T04:58:04.490Z,89.73
2023-04-26T04:58:36.203Z,89.44
2023-04-26T04:59:08.602Z,89.88
2023-04-26T04:59:40.425Z,89.74
2023-04-26T05:00:13.152Z,89.46
2023-04-26T05:00:45.770Z,89.65
2023-04-26T05:01:17.324Z,89.30
2023-04-26T05:01:49.648Z,89.22
2023-04-26T05:02:21.352Z,89.42
2023-04-26T05:02:53.111Z,89.24
2023-04-26T05:03:24.814Z,89.47
2023-04-26T05:03:56.850Z,89.21
2023-04-26T05:04:28.920Z,89.10
2023-04-26T05:05:02.084Z,89.56
2023-04-26T05:05:34.037Z,89.58
2023-04-26T05:06:05.767Z,89.58
2023-04-26T05:06:37.590Z,89.85
2023-04-26T05:07:09.507Z,89.86
2023-04-26T05:07:40.981Z,90.04
2023-04-26T05:08:12.451Z,89.85
2023-04-26T05:08:43.951Z,90.05
2023-04-26T05:09:15.329Z,90.01
2023-04-26T05:09:47.071Z,89.83
2023-04-26T05:10:18.651Z,90.11
2023-04-26T05:10:50.231Z,90.08
2023-04-26T05:11:21.637Z,90.19
2023-04-26T05:11:53.189Z,89.75
2023-04-26T05:12:24.721Z,89.80
2023-04-26T05:12:56.164Z,89.68
2023-04-26T05:13:27.528Z,89.69
2023-04-26T05:13:59.379Z,89.76
2023-04-26T05:14:30.918Z,89.52
2023-04-26T05:15:02.432Z,89.69
2023-04-26T05:15:33.898Z,89.49
2023-04-26T05:16:05.601Z,89.47
2023-04-26T05:16:38.494Z,89.25
2023-04-26T05:17:09.951Z,89.35
2023-04-26T05:17:41.948Z,89.59
2023-04-26T05:18:13.416Z,89.49
2023-04-26T05:18:45.081Z,89.38
2023-04-26T05:19:16.773Z,89.47
2023-04-26T05:19:48.332Z,89.59
2023-04-26T05:20:19.826Z,89.73
2023-04-26T05:20:51.268Z,89.68
2023-04-26T05:21:23.569Z,89.66
2023-04-26T05:21:57.143Z,89.27
2023-04-26T05:22:28.785Z,89.60
2023-04-26T05:23:00.255Z,89.56
2023-04-26T05:23:31.845Z,89.45
2023-04-26T05:24:04.175Z,89.52
2023-04-26T05:24:35.694Z,89.93
2023-04-26T05:25:08.973Z,89.63
2023-04-26T05:25:40.397Z,89.65
2023-04-26T05:26:15.198Z,89.55
2023-04-26T05:26:47.153Z,89.67
2023-04-26T05:27:18.538Z,89.58
2023-04-26T05:27:50.141Z,89.67
2023-04-26T05:28:21.768Z,89.38
2023-04-26T05:28:53.197Z,89.43
2023-04-26T05:29:25.133Z,89.25
2023-04-26T05:29:56.528Z,88.90
2023-04-26T05:30:27.982Z,89.06
2023-04-26T05:31:00.011Z,89.04
2023-04-26T05:31:31.669Z,89.38
2023-04-26T05:32:03.829Z,89.21
2023-04-26T05:32:35.309Z,89.09
2023-04-26T05:33:06.901Z,89.20
2023-04-26T05:33:39.267Z,88.77
2023-04-26T05:34:10.787Z,89.16
2023-04-26T05:34:42.353Z,89.10
2023-04-26T05:35:13.815Z,89.33
2023-04-26T05:35:45.971Z,89.14
2023-04-26T05:36:17.543Z,89.16
2023-04-26T05:36:48.912Z,89.18
2023-04-26T05:37:20.287Z,88.87
2023-04-26T05:37:51.783Z,88.88
2023-04-26T05:38:23.453Z,89.13
2023-04-26T05:38:54.995Z,89.21
2023-04-26T05:39:26.524Z,89.05
2023-04-26T05:39:57.954Z,89.24
2023-04-26T05:40:29.481Z,89.06
2023-04-26T05:41:00.959Z,89.29
2023-04-26T05:41:32.805Z,89.09
2023-04-26T05:42:04.694Z,89.17
2023-04-26T05:42:37.025Z,89.27
2023-04-26T05:43:08.692Z,89.31
2023-04-26T05:43:40.457Z,89.31
2023-04-26T05:44:13.332Z,89.22
2023-04-26T05:44:44.700Z,89.19
2023-04-26T05:45:16.296Z,89.07
2023-04-26T05:45:54.951Z,89.34
2023-04-26T05:46:26.810Z,89.19
2023-04-26T05:46:58.341Z,89.47
2023-04-26T05:47:29.804Z,89.59
2023-04-26T05:48:01.537Z,89.36
2023-04-26T05:48:33.235Z,89.00
2023-04-26T05:49:04.643Z,89.43
2023-04-26T05:49:36.119Z,88.88
2023-04-26T05:50:08.304Z,88.77
2023-04-26T05:50:40.152Z,88.72
2023-04-26T05:51:11.604Z,88.75
2023-04-26T05:51:43.371Z,88.90
2023-04-26T05:52:14.914Z,88.74
2023-04-26T05:52:46.306Z,88.86
2023-04-26T05:53:19.199Z,88.73
2023-04-26T05:53:51.626Z,88.89
2023-04-26T05:54:23.256Z,88.83
2023-04-26T05:54:54.737Z,88.84
2023-04-26T05:55:26.326Z,88.53
2023-04-26T05:55:57.937Z,88.39
2023-04-26T05:56:29.361Z,88.39
2023-04-26T05:57:00.781Z,88.37
2023-04-26T05:57:32.345Z,88.53
2023-04-26T05:58:04.938Z,88.55
2023-04-26T05:58:36.496Z,88.29
2023-04-26T05:59:08.624Z,88.42
2023-04-26T05:59:40.523Z,88.29
2023-04-26T06:00:12.799Z,88.51
2023-04-26T06:00:44.288Z,88.59
2023-04-26T06:01:15.703Z,88.54
2023-04-26T06:01:47.242Z,88.52
2023-04-26T06:02:18.832Z,88.42
2023-04-26T06:02:50.588Z,88.72
2023-04-26T06:03:22.281Z,88.34
2023-04-26T06:03:56.924Z,88.30
2023-04-26T06:04:31.659Z,88.09
2023-04-26T06:05:03.449Z,88.20
2023-04-26T06:05:37.902Z,88.36
2023-04-26T06:06:09.536Z,88.06
2023-04-26T06:06:41.268Z,87.87
2023-04-26T06:07:12.749Z,87.74
2023-04-26T06:07:44.964Z,87.71
2023-04-26T06:08:16.585Z,87.54
2023-04-26T06:08:48.027Z,87.59
2023-04-26T06:09:20.221Z,87.52
2023-04-26T06:09:51.789Z,87.88
2023-04-26T06:10:23.238Z,87.68
2023-04-26T06:10:54.642Z,87.28
2023-04-26T06:11:26.866Z,87.18
2023-04-26T06:11:58.662Z,87.29
2023-04-26T06:12:30.177Z,87.07
2023-04-26T06:13:01.610Z,86.68
2023-04-26T06:13:32.950Z,86.38
2023-04-26T06:14:05.430Z,86.27
2023-04-26T06:14:36.863Z,86.16
2023-04-26T06:15:08.876Z,86.49
2023-04-26T06:15:40.278Z,86.67
2023-04-26T06:16:11.710Z,86.13
2023-04-26T06:16:43.886Z,86.16
2023-04-26T06:17:15.597Z,85.58
2023-04-26T06:17:47.390Z,85.49
2023-04-26T06:18:18.850Z,85.49
2023-04-26T06:18:50.267Z,85.31
2023-04-26T06:19:21.671Z,85.37
2023-04-26T06:19:53.133Z,85.29
2023-04-26T06:20:24.638Z,85.23
2023-04-26T06:20:56.087Z,85.26
2023-04-26T06:21:27.878Z,85.38
2023-04-26T06:21:59.311Z,85.35
2023-04-26T06:22:31.137Z,85.14
2023-04-26T06:23:02.890Z,85.33
2023-04-26T06:23:34.319Z,85.11
2023-04-26T06:24:06.156Z,85.40
2023-04-26T06:24:37.868Z,85.41
2023-04-26T06:25:09.769Z,85.25
2023-04-26T06:25:45.119Z,85.34
2023-04-26T06:26:16.481Z,85.29
2023-04-26T06:26:47.860Z,85.38
2023-04-26T06:27:19.220Z,85.35
2023-04-26T06:27:50.828Z,84.98
2023-04-26T06:28:22.290Z,85.05
2023-04-26T06:28:53.641Z,84.92
2023-04-26T06:29:25.457Z,85.02
2023-04-26T06:29:57.399Z,85.66
2023-04-26T06:30:28.919Z,85.93
2023-04-26T06:31:00.482Z,86.32
2023-04-26T06:31:32.086Z,85.79
2023-04-26T06:32:03.768Z,85.86
2023-04-26T06:32:35.274Z,85.13
2023-04-26T06:33:06.743Z,85.44
2023-04-26T06:33:38.185Z,85.43
2023-04-26T06:34:09.705Z,85.00
2023-04-26T06:34:41.183Z,85.39
2023-04-26T06:35:12.774Z,85.68
2023-04-26T06:35:44.147Z,85.45
2023-04-26T06:36:15.551Z,85.56
2023-04-26T06:36:47.528Z,85.50
2023-04-26T06:37:19.004Z,85.28
2023-04-26T06:37:50.580Z,84.75
2023-04-26T06:38:22.007Z,85.15
2023-04-26T06:38:53.410Z,84.50
2023-04-26T06:39:24.799Z,84.35
2023-04-26T06:39:56.242Z,84.45
2023-04-26T06:40:27.734Z,83.80
2023-04-26T06:40:59.416Z,83.61
2023-04-26T06:41:31.303Z,83.82
2023-04-26T06:42:02.718Z,83.95
2023-04-26T06:42:34.395Z,84.34
2023-04-26T06:43:05.853Z,83.95
2023-04-26T06:43:37.454Z,83.54
2023-04-26T06:44:08.906Z,83.44
2023-04-26T06:44:40.411Z,83.48
2023-04-26T06:45:12.626Z,83.67
2023-04-26T06:45:44.189Z,83.68
2023-04-26T06:46:15.657Z,83.35
2023-04-26T06:46:47.307Z,83.92
2023-04-26T06:47:18.806Z,83.56
2023-04-26T06:47:53.163Z,83.79
2023-04-26T06:48:24.663Z,83.21
2023-04-26T06:48:56.226Z,82.83
2023-04-26T06:49:27.680Z,83.37
2023-04-26T06:49:59.436Z,83.08
2023-04-26T06:50:30.819Z,82.67
2023-04-26T06:51:09.212Z,82.52